Sonic Adventure (DX): Time Rankings

Records: Times | Rings | Scores | Races | Bosses | Freestyle
Leaders: Times | Rings | Scores | Races | Bosses | Freestyle | Overall
Rank Player Percent Points Date
1 Gamepro011 98.8% 68 01-15-22
2 Niczur 98.6% 79 01-15-22
3 Sonicspeedruner 98.0% 117 01-15-22
4 Nim 94.2% 342 01-15-22
5 Jawzun 93.5% 381 01-15-22
6 Dashjump 93.5% 383 01-15-22
7 DarkPolarNight 92.6% 437 01-15-22
8 drminus 90.4% 566 01-15-22
9 F-Man 90.3% 572 01-15-22
10 THC98 90.0% 592 01-15-22
11 ike6252 88.0% 708 01-15-22
12 Avento128bits 87.8% 724 01-15-22
13 francisco 87.2% 760 01-15-22
14 DarkspinesSonic 86.7% 786 01-15-22
15 ethmar 86.7% 788 01-15-22
16 Marth 86.6% 791 01-15-22
17 frankoredstrato 85.4% 866 01-15-22
18 chainchump 83.7% 965 01-15-22
19 TheRealShadnic 83.6% 971 01-15-22
20 Paragod 82.5% 1039 01-15-22
21 HyperSonic7701 82.3% 1051 01-15-22
22 Calfd 82.0% 1070 01-15-22
23 Coolfansonic 79.5% 1216 01-15-22
24 InferSaime 79.1% 1240 01-15-22
25 xXMegaManXx 77.8% 1319 01-15-22
26 Stefan 77.8% 1320 01-15-22
27 PfoSonic 77.2% 1351 01-15-22
28 bertin 75.6% 1451 01-15-22
29 yoshifan 75.2% 1473 01-15-22
30 Dave Cramer 73.4% 1577 01-15-22
31 RPGnutter 73.3% 1586 01-15-22
32 sonicam 71.7% 1680 01-15-22
33 Cybrax 71.3% 1703 01-15-22
34 Dekuboy 70.3% 1763 01-15-22
35 CoEmpathy 69.6% 1802 01-15-22
36 Ring Rush 68.8% 1850 01-15-22
37 mike89 68.0% 1901 01-15-22
38 NintenDan 67.8% 1911 01-15-22
39 chaos shadow 67.7% 1919 01-15-22
40 a_moustache 66.6% 1986 01-15-22
41 SkyLights 64.4% 2116 01-15-22
42 iden1 63.7% 2155 01-15-22
43 Combo 62.9% 2202 01-15-22
44 SADXTryHard 60.5% 2349 01-15-22
45 P1 Pause 60.0% 2373 01-15-22
46 WeegeeZV 58.8% 2448 01-15-22
47 Groudon199 58.2% 2483 01-15-22
48 AxlThunder 57.7% 2513 01-15-22
49 Game_Complete 57.4% 2532 01-15-22
50 Shadow Jacky 57.3% 2538 01-15-22
51 VMU Player Banned 56.4% 2587 01-15-22
52 Thorn 56.2% 2600 01-15-22
53 SB737 55.1% 2670 01-15-22
54 The Knuckles Chao 54.9% 2681 01-15-22
55 SadisticMystic 54.8% 2685 01-15-22
56 Chao_Fan 54.8% 2688 01-15-22
57 Parax 54.3% 2716 01-15-22
58 Mastakirby 54.2% 2719 01-15-22
59 KinkyCadence 53.7% 2753 01-15-22
60 OmegaDJ 53.6% 2754 01-15-22
61 mauserman 53.6% 2755 01-15-22
62 LittleBigness 53.6% 2759 01-15-22
63 Psyknux 53.3% 2776 01-15-22
64 Auriman1 53.0% 2791 01-15-22
65 magnum12 52.9% 2796 01-15-22
66 Turbos 52.5% 2821 01-15-22
67 GerbilSoft 51.8% 2861 01-15-22
68 GreatStar 51.4% 2886 01-15-22
69 Webber3000 51.1% 2905 01-15-22
70 Hipertails12 50.5% 2942 01-15-22
71 N 50.2% 2959 01-15-22
72 SPVLABS 49.1% 3027 01-15-22
73 James_Bertolli 48.2% 3078 01-15-22
74 Cream147 47.8% 3101 01-15-22
75 welldooder64 47.0% 3150 01-15-22
76 Skylace 46.8% 3163 01-15-22
77 Omega Rafael Santos 46.6% 3172 01-15-22
78 Quartz 46.6% 3174 01-15-22
79 Diamond 46.4% 3182 01-15-22
80 Psymar 46.3% 3190 01-15-22
81 SonicWinDX 45.6% 3231 01-15-22
82 teamblackarms 45.3% 3249 01-15-22
83 Cyan Ryan 44.7% 3285 01-15-22
84 Andrea Ritsu 44.6% 3289 01-15-22
85 buddychaos0415 44.4% 3301 01-15-22
86 SilverSonic 43.9% 3336 01-15-22
87 SilvertheAlmighty 43.4% 3361 01-15-22
88 sonicd5 43.4% 3365 01-15-22
89 paulie9990 43.4% 3366 01-15-22
90 itsPersonnal 42.6% 3413 01-15-22
91 metanightmare22 42.5% 3416 01-15-22
92 lordmetalsonic 40.3% 3545 01-15-22
93 Arch 40.0% 3564 01-15-22
94 videogamemaster777 39.1% 3617 01-15-22
95 Termon 39.0% 3622 01-15-22
96 supersonicfan 38.8% 3639 01-15-22
97 Zethor 38.6% 3651 01-15-22
98 Drakodan 38.1% 3676 01-15-22
99 LilZero 37.9% 3689 01-15-22
100 Kanimayo_Jp 37.9% 3691 01-15-22
101 supersonic465 37.6% 3705 01-15-22
102 FuzZerd 37.4% 3719 01-15-22
103 JamminX42 37.1% 3735 01-15-22
104 eggFL 37.0% 3741 01-15-22
105 BigAL49 36.8% 3757 01-15-22
106 Don 36.3% 3788 01-15-22
107 danieldude 36.1% 3796 01-15-22
108 Siavash Tazari 35.3% 3846 01-15-22
109 Zurggriff 35.1% 3856 01-15-22
110 Fr3nZy 35.0% 3860 01-15-22
111 f0rever_zer0 34.4% 3896 01-15-22
112 Cod4Scopes 34.1% 3916 01-15-22
113 Austinf 33.4% 3959 01-15-22
113 LinksDarkArrows 33.4% 3959 01-15-22
115 Therio 33.1% 3974 01-15-22
116 elecmouse101 32.6% 4003 01-15-22
117 Staf 32.3% 4025 01-15-22
118 MiStEr_ShAoLiN 31.9% 4045 01-15-22
119 ModifiedMonkee 31.8% 4054 01-15-22
119 R3FR4G 31.8% 4054 01-15-22
121 Twilisailor 31.6% 4065 01-15-22
122 videogamer1014 31.3% 4081 01-15-22
123 BrokenArthritis 31.3% 4085 01-15-22
124 Xia 30.8% 4115 01-15-22
125 AC-Tygo 30.7% 4121 01-15-22
126 welshmoose05 30.4% 4139 01-15-22
127 OddCook 29.9% 4166 01-15-22
128 The Great Lord Mick 29.5% 4188 01-15-22
129 Aitamen 29.1% 4212 01-15-22
130 Mcshuggets 29.0% 4221 01-15-22
131 Maxinfamily 28.9% 4227 01-15-22
132 Matt_TY 28.7% 4237 01-15-22
133 joecoolgames 28.4% 4254 01-15-22
134 dabestgamer 28.4% 4256 01-15-22
135 SuperBlitzCraig 28.0% 4281 01-15-22
136 Irregular Zero 27.9% 4285 01-15-22
137 SuperSonic101 27.1% 4331 01-15-22
138 Shadowthegreat 27.1% 4333 01-15-22
139 superjupi 27.0% 4340 01-15-22
140 Rolken 26.7% 4358 01-15-22
141 Hunters13 26.6% 4363 01-15-22
142 thewaytodawnnn 26.3% 4377 01-15-22
143 sonamyfan666 26.2% 4388 01-15-22
144 Modest 25.9% 4401 01-15-22
145 iarebored 25.9% 4402 01-15-22
146 koinu93 25.8% 4409 01-15-22
147 Spinballwizard 25.7% 4413 01-15-22
148 SaviourDC 25.7% 4415 01-15-22
149 SonicKnuckles 25.7% 4417 01-15-22
150 Pokemonmaster888 24.9% 4465 01-15-22
151 adf 24.7% 4475 01-15-22
151 EngiNerd 24.7% 4475 01-15-22
153 SonicAD 24.6% 4479 01-15-22
154 Megaman EXE565 23.7% 4533 01-15-22
155 The T 23.5% 4545 01-15-22
156 andy120195 23.3% 4559 01-15-22
157 Sonic Singularity 22.9% 4581 01-15-22
158 Platformer 22.7% 4595 01-15-22
159 SeaWolf 22.4% 4611 01-15-22
160 timpkmn89 22.3% 4616 01-15-22
161 Swift Hobo 22.2% 4626 01-15-22
162 Sondow 21.5% 4664 01-15-22
163 Rickyman48 21.2% 4681 01-15-22
164 KitsuneYamaro 21.0% 4698 01-15-22
165 FoxBoy 20.9% 4704 01-15-22
166 Sm4sh 20.8% 4707 01-15-22
167 TFEC Headshot 20.3% 4739 01-15-22
168 Jerzia 20.2% 4741 01-15-22
169 Kogen Player Banned 19.8% 4766 01-15-22
170 Badlex727 19.6% 4780 01-15-22
171 Starlight Sable 19.5% 4783 01-15-22
172 IsisDazs 19.0% 4817 01-15-22
173 Powerjohn25 18.7% 4831 01-15-22
174 HyperSonic64 18.7% 4832 01-15-22
175 crazy1993 18.5% 4841 01-15-22
175 Tethys 18.5% 4841 01-15-22
177 andres430 18.3% 4853 01-15-22
178 SonicU260 17.4% 4912 01-15-22
179 MPit08 17.1% 4930 01-15-22
180 Swinkly 17.0% 4935 01-15-22
181 iSonicKid2K 16.3% 4976 01-15-22
182 dShadow 16.0% 4993 01-15-22
183 Cutiefox 15.7% 5008 01-15-22
184 Miles9999 15.6% 5019 01-15-22
185 Chawkk 15.4% 5026 01-15-22
186 Monkeh 15.4% 5028 01-15-22
187 Crispian 15.3% 5032 01-15-22
188 DaDude 14.9% 5059 01-15-22
189 Drflash55 14.5% 5080 01-15-22
190 Bass 14.3% 5092 01-15-22
191 Destroyer121121 14.2% 5100 01-15-22
192 Cruizer 14.2% 5102 01-15-22
193 Yish 14.1% 5108 01-15-22
194 zapp 14.0% 5112 01-15-22
195 neaolas 13.9% 5119 01-15-22
196 UninspiredUsername 13.8% 5124 01-15-22
197 superiorsonic 13.7% 5132 01-15-22
198 gamefreak1292 13.5% 5139 01-15-22
199 Cooljay 13.2% 5160 01-15-22
200 Sora_yx 13.0% 5170 01-15-22
201 Chaos_Overlord 12.4% 5207 01-15-22
202 Valfore 12.0% 5229 01-15-22
203 GarnetPrincess 11.8% 5241 01-15-22
204 Dage4Aquatic 11.7% 5246 01-15-22
205 ShinigamiMachine 11.6% 5257 01-15-22
206 soniccoloursunleashed 11.5% 5259 01-15-22
207 Sonicsuperstar1 11.1% 5285 01-15-22
208 FocusSight64 10.8% 5303 01-15-22
209 Werey 10.6% 5311 01-15-22
210 booo95 10.6% 5312 01-15-22
211 Mo Player Banned 10.4% 5324 01-15-22
212 SirTobbii 10.4% 5326 01-15-22
213 sonicspeed 10.3% 5331 01-15-22
214 Jua Rever 10.3% 5334 01-15-22
215 Venick409 9.5% 5379 01-15-22
216 nman36 9.4% 5387 01-15-22
216 Sithwarrior26 9.4% 5387 01-15-22
218 CyberShadow 8.8% 5420 01-15-22
218 ingx24 8.8% 5420 01-15-22
220 dekki1234 8.6% 5435 01-15-22
221 ArthurVGCP 8.4% 5443 01-15-22
222 Fozer 8.3% 5451 01-15-22
223 Egor305 8.2% 5454 01-15-22
224 Colomb_30 8.1% 5463 01-15-22
224 Regano1000 8.1% 5463 01-15-22
226 1stKirbyever 7.9% 5474 01-15-22
227 nuckrieg 7.7% 5487 01-15-22
228 TimTH 7.6% 5492 01-15-22
229 Brian_pso 7.5% 5499 01-15-22
230 douglas 7.3% 5509 01-15-22
231 TakaRikka 7.2% 5516 01-15-22
232 Th4tN1nj4Turtl3 7.1% 5519 01-15-22
233 Zip 7.0% 5525 01-15-22
234 wheatrich 6.8% 5539 01-15-22
235 Mariosonic15 6.7% 5545 01-15-22
236 ieatatsonic 6.5% 5558 01-15-22
236 MStitomix 6.5% 5558 01-15-22
238 niscool 6.5% 5560 01-15-22
239 HermitHelmet 6.4% 5562 01-15-22
240 Cort_pso 6.1% 5580 01-15-22
241 Got4n 6.1% 5583 01-15-22
242 Triseena 6.0% 5589 01-15-22
243 Jose_15 5.8% 5598 01-15-22
244 Artie 5.6% 5610 01-15-22
245 SuperSonicfan9595 5.6% 5612 01-15-22
246 BlankTH 5.5% 5615 01-15-22
247 Ace747 5.3% 5626 01-15-22
247 HHNNBBHHN 5.3% 5626 01-15-22
249 Richied 5.2% 5636 01-15-22
250 Paixii 5.1% 5638 01-15-22
251 Aiko 5.1% 5640 01-15-22
252 BallzeH 4.8% 5659 01-15-22
252 FSSRandomvids 4.8% 5659 01-15-22
254 slade23 4.8% 5660 01-15-22
255 Jamixesa 4.7% 5662 01-15-22
256 PsyBorg 4.7% 5664 01-15-22
257 ArcticDragon 4.7% 5666 01-15-22
258 Mankster101 4.7% 5667 01-15-22
259 BecauseWarAnvil 4.6% 5670 01-15-22
260 Xandre69 4.5% 5674 01-15-22
261 Nickson98 4.5% 5678 01-15-22
262 Crydio 4.4% 5683 01-15-22
263 TheUltraBlur 4.4% 5685 01-15-22
264 MarewBFN 4.1% 5698 01-15-22
265 stanski 4.1% 5702 01-15-22
266 tal39h 4.0% 5707 01-15-22
267 knuckles_sonic8 3.9% 5715 01-15-22
268 Blue Infamy 3.8% 5719 01-15-22
269 ALundstrom10 3.8% 5721 01-15-22
269 p0ker 3.8% 5721 01-15-22
271 ErrortheCucco 3.6% 5730 01-15-22
272 Rikum22 3.5% 5733 01-15-22
273 sonic1001 3.4% 5741 01-15-22
274 AJSIV 3.4% 5744 01-15-22
274 TheChaosEmeraIds 3.4% 5744 01-15-22
276 syco1098 3.3% 5747 01-15-22
277 IDGeek121 3.3% 5749 01-15-22
277 Sonic the Hedgehod16 3.3% 5749 01-15-22
279 ASINISTERTACO 3.1% 5757 01-15-22
280 sonicfan9 3.0% 5764 01-15-22
281 themachoman202 2.9% 5774 01-15-22
282 MK 2.8% 5777 01-15-22
283 Fivavoa 2.7% 5783 01-15-22
284 Mr. Jones 2.7% 5785 01-15-22
285 BlackArmsShadow 2.6% 5788 01-15-22
285 djmat 2.6% 5788 01-15-22
287 arcfx1985 2.6% 5789 01-15-22
287 Sonique Hedgehog 2.6% 5789 01-15-22
289 FlandreScarlet9999vr 2.5% 5794 01-15-22
289 ptorflaxendrosis 2.5% 5794 01-15-22
291 Zeldocto 2.4% 5799 01-15-22
292 BeeAwwb 2.4% 5802 01-15-22
293 KaM Mark MaK 2.3% 5807 01-15-22
294 ShadouZaHejjihoggu 2.3% 5809 01-15-22
295 darkstarblaze 2.2% 5816 01-15-22
296 Sonic The Star 2.1% 5819 01-15-22
297 darkersupershadic 2.1% 5820 01-15-22
298 SpiritDragon1995 2.1% 5821 01-15-22
299 sonic29887 2.0% 5826 01-15-22
300 Sarger001 2.0% 5827 01-15-22
301 Grady219 2.0% 5828 01-15-22
302 Jawaah 1.9% 5833 01-15-22
302 shadowblast63 Player Banned 1.9% 5833 01-15-22
304 Antek 1.8% 5837 01-15-22
305 Klaus 1.8% 5839 01-15-22
306 BioShadow 1.6% 5847 01-15-22
307 IcKY 1.5% 5855 01-15-22
308 isaihtb11 1.4% 5862 01-15-22
308 SkyBon 1.4% 5862 01-15-22
310 Shanekilz 1.4% 5863 01-15-22
311 OhNoes! 1.3% 5867 01-15-22
312 zaktu40 1.3% 5869 01-15-22
313 gaara1234 1.2% 5872 01-15-22
313 S-MS32X-S 1.2% 5872 01-15-22
315 MastaToken 1.1% 5880 01-15-22
316 Mister_Slick 1.0% 5883 01-15-22
317 Sonic06Fan 1.0% 5887 01-15-22
318 Rush Hero 0.9% 5889 01-15-22
319 ChaosNexuss 0.9% 5890 01-15-22
320 oTaiIilLsS 0.9% 5893 01-15-22
321 SonicMega167 0.8% 5895 01-15-22
322 SilverK 0.8% 5897 01-15-22
323 gamed00d 0.8% 5898 01-15-22
324 Burningskull123 0.5% 5914 01-15-22
325 Heroes_Hater 0.5% 5917 01-15-22
326 Sonicontherun 0.3% 5926 01-15-22
327 antiwwe 0.2% 5932 01-15-22
328 Iwannabelink 0.2% 5934 01-15-22
329 Genuine Hedgehog 0.1% 5936 01-15-22
330 dragondragon18 0.1% 5940 01-15-22
331 SonicK100 0.1% 5941 01-15-22
332 Tyrouble 0.0% 5946 01-15-22
333 LancexExWx 0.0% 5947 01-15-22
333 neji_hyuuga 0.0% 5947 01-15-22
333 Over 0.0% 5947 01-15-22
333 sdj6707 Player Banned 0.0% 5947 01-15-22
333 Tran Sonic Fan Player Banned 0.0% 5947 01-15-22

This page is using the New Data Table System. [FUTURE]

Game ID: 3 | Category ID: 1
Hits: 3,499 | Hits This Month: 25 | DB Calls: 25 | Mem Usage: 1019.27 KB | Time: 0.06s | Printable

The Sonic Center v3.9
Copyright 2003-2011 by The Sonic Center Team.